LGRP

Diagoras Airport

Rodes Island, Greece
TAF LGRP 201700Z 2018/2118 06010KT 9999 FEW018 SCT020 PROB40 TEMPO 2018/2112 5000 RA FEW010 BKN020 PROB30 TEMPO 2018/2110 4000 TSRA FEW018CB BKN020 OVC050 BECMG 2018/2020 16010KT
Issued Valid From Valid To
Jan-20 @ 17:00 UTC
(5 hours ago)
Jan-20 @ 18:00 UTC
(4 hours ago)
Jan-21 @ 18:00 UTC
(in 20 hours)
Jan-20 @ 18:00 to Jan-21 @ 18:00
TAF LGRP 201700Z 2018/2118 06010KT 9999 FEW018 SCT020
Wind Visibility Clouds
60° at 10 knots 10,000+ meters
  • Few at 1,800' AGL
  • Scattered at 2,000' AGL
Temporary  (Probability 30%) Jan-20 @ 18:00 to Jan-21 @ 10:00
PROB30 TEMPO 2018/2110 4000 TSRA FEW018CB BKN020 OVC050
Visibility Clouds Conditions
4,007 meters
  • Few at 1,800' AGL
  • Broken at 2,000' AGL
  • Overcast at 5,000' AGL
  • Thunderstorm
  • Rain
Temporary  (Probability 40%) Jan-20 @ 18:00 to Jan-21 @ 12:00
PROB40 TEMPO 2018/2112 5000 RA FEW010 BKN020
Visibility Clouds Conditions
5,005 meters
  • Few at 1,000' AGL
  • Broken at 2,000' AGL
  • Rain
Becoming Jan-20 @ 18:00 to Jan-21 @ 18:00
BECMG 2018/2020 16010KT
Wind Visibility Clouds
160° at 10 knots 10,000+ meters
  • Few at 1,800' AGL
  • Scattered at 2,000' AGL
TAF LGRP 201700Z 2018/2118 06010KT 9999 FEW018 SCT020 PROB40 TEMPO 2018/2112 5000 RA FEW010 BKN020 PROB30 TEMPO 2018/2110 4000 TSRA FEW018CB BKN020 OVC050 BECMG 2018/2020 16010KT
Issued Jan-20 @ 17:00 UTC
(5 hours ago)
Valid From Jan-20 @ 18:00 UTC
(4 hours ago)
Valid To Jan-21 @ 18:00 UTC
(in 20 hours)
Jan-20 @ 18:00 - Jan-21 @ 18:00
Wind Visibility
60° at 10 knots 10,000+ meters
Clouds
  • Few at 1,800' AGL
  • Scattered at 2,000' AGL
Probability 30% Temporary Jan-20 @ 18:00 - Jan-21 @ 10:00
Clouds
  • Few at 1,800' AGL
  • Broken at 2,000' AGL
  • Overcast at 5,000' AGL
Conditions
  • Thunderstorm
  • Rain
Probability 40% Temporary Jan-20 @ 18:00 - Jan-21 @ 12:00
Clouds
  • Few at 1,000' AGL
  • Broken at 2,000' AGL
Conditions
  • Rain
Becoming Jan-20 @ 18:00 - Jan-21 @ 18:00
Wind Visibility
160° at 10 knots 10,000+ meters
Clouds
  • Few at 1,800' AGL
  • Scattered at 2,000' AGL